Time;durP1;ratioP1;P1;durP2;ratioP2;P2;SDS_P1;SDS_P2;PMS_P1;PMS_P2;Temp;Humidity;BMP_temperature;BMP_pressure;BME280_temperature;BME280_humidity;BME280_pressure;Samples;Min_cycle;Max_cycle;Signal;HPM_P1;HPM_P2
2022/08/29 00:02:22;;;;;;;10.70;8.80;;;14.90;99.90;;;;;;5046788;28;20189;-51
2022/08/29 00:04:48;;;;;;;8.60;7.70;;;14.90;99.90;;;;;;5043744;28;20179;-46
2022/08/29 00:07:13;;;;;;;10.30;9.30;;;14.80;99.90;;;;;;5047811;28;20213;-46
2022/08/29 00:09:39;;;;;;;10.00;8.13;;;14.80;99.90;;;;;;5046815;28;20186;-47
2022/08/29 00:12:05;;;;;;;12.13;8.43;;;14.80;99.90;;;;;;5047689;28;20551;-46
2022/08/29 00:14:31;;;;;;;14.30;8.93;;;14.80;99.90;;;;;;5048052;28;20208;-49
2022/08/29 00:16:57;;;;;;;10.93;8.53;;;14.80;99.90;;;;;;5043440;28;20186;-46
2022/08/29 00:19:22;;;;;;;12.00;9.20;;;14.70;99.90;;;;;;5019910;28;20441;-50
2022/08/29 00:21:49;;;;;;;9.77;8.87;;;14.80;99.90;;;;;;5048842;28;20300;-51
2022/08/29 00:24:15;;;;;;;11.97;9.07;;;14.70;99.90;;;;;;5046084;28;20186;-49
2022/08/29 00:26:41;;;;;;;10.40;9.37;;;14.70;99.90;;;;;;5042044;28;20440;-48
2022/08/29 00:29:07;;;;;;;10.00;8.60;;;14.70;99.90;;;;;;5047673;28;20425;-51
2022/08/29 00:31:33;;;;;;;12.63;9.23;;;14.70;99.90;;;;;;5047978;28;20462;-47
2022/08/29 00:33:58;;;;;;;9.40;8.50;;;14.60;99.90;;;;;;5047588;28;21066;-48
2022/08/29 00:36:25;;;;;;;12.60;8.33;;;14.60;99.90;;;;;;5040870;28;20190;-50
2022/08/29 00:38:50;;;;;;;10.10;9.10;;;14.60;99.90;;;;;;5046946;28;20656;-46
2022/08/29 00:41:16;;;;;;;8.53;7.67;;;14.60;99.90;;;;;;5040444;28;20547;-52
2022/08/29 00:43:43;;;;;;;9.87;8.23;;;14.60;99.90;;;;;;5041307;28;20251;-50
2022/08/29 00:46:42;;;;;;;17.70;9.17;;;14.50;99.90;;;;;;5040479;28;20501;-48
2022/08/29 00:49:15;;;;;;;9.47;8.10;;;14.50;99.90;;;;;;5042285;28;20428;-51
2022/08/29 00:51:40;;;;;;;12.10;9.13;;;14.50;99.90;;;;;;5043218;28;20440;-49
2022/08/29 00:54:10;;;;;;;10.70;8.20;;;14.40;99.90;;;;;;5045990;28;20444;-51
2022/08/29 00:56:38;;;;;;;10.83;8.50;;;14.40;99.90;;;;;;5047876;28;20230;-49
2022/08/29 00:59:18;;;;;;;11.03;8.93;;;14.40;99.90;;;;;;5043617;28;20437;-50
2022/08/29 01:01:45;;;;;;;10.43;9.20;;;14.40;99.90;;;;;;5046454;28;20502;-46
2022/08/29 01:04:11;;;;;;;12.40;9.73;;;14.30;99.90;;;;;;5039795;28;20483;-47
2022/08/29 01:06:39;;;;;;;13.17;9.20;;;14.30;99.90;;;;;;5045963;28;20463;-49
2022/08/29 01:09:05;;;;;;;11.80;9.80;;;14.30;99.90;;;;;;5042852;28;20455;-50
2022/08/29 01:12:16;;;;;;;11.47;8.53;;;14.30;99.90;;;;;;5041432;28;20440;-51
2022/08/29 01:14:20;;;;;;;10.00;8.33;;;14.20;99.90;;;;;;5026959;28;20808;-50
2022/08/29 01:16:47;;;;;;;11.80;8.57;;;14.20;99.90;;;;;;5051235;28;20432;-51
2022/08/29 01:19:40;;;;;;;10.10;8.90;;;14.20;99.90;;;;;;5039981;28;20437;-50
2022/08/29 01:22:18;;;;;;;10.17;8.97;;;14.20;99.90;;;;;;5047593;28;20437;-45
2022/08/29 01:24:49;;;;;;;11.83;9.60;;;14.10;99.90;;;;;;5035573;28;20436;-49
2022/08/29 01:27:18;;;;;;;10.43;8.77;;;14.20;99.90;;;;;;5050046;28;20441;-47
2022/08/29 01:29:44;;;;;;;12.53;9.03;;;14.10;99.90;;;;;;5050443;28;20575;-52
2022/08/29 01:32:11;;;;;;;10.10;9.10;;;14.10;99.90;;;;;;5051140;28;20515;-46
2022/08/29 01:34:38;;;;;;;12.50;9.70;;;14.10;99.90;;;;;;5038720;28;20185;-52
2022/08/29 01:37:06;;;;;;;10.97;9.20;;;14.10;99.90;;;;;;5047884;28;20482;-52
2022/08/29 01:39:35;;;;;;;10.17;9.00;;;14.00;99.90;;;;;;5041378;28;20465;-52
2022/08/29 01:42:05;;;;;;;10.87;8.87;;;14.00;99.90;;;;;;5048840;28;20445;-50
2022/08/29 01:44:31;;;;;;;10.97;9.40;;;14.00;99.90;;;;;;5027426;28;20441;-48
2022/08/29 01:47:00;;;;;;;13.30;8.60;;;14.00;99.90;;;;;;5045947;28;20442;-51
2022/08/29 01:49:26;;;;;;;10.40;9.10;;;14.00;99.90;;;;;;5044729;28;20175;-47
2022/08/29 01:51:53;;;;;;;11.43;8.87;;;14.00;99.90;;;;;;5036666;28;21277;-50
2022/08/29 01:54:19;;;;;;;13.10;8.93;;;14.00;99.90;;;;;;5039458;28;21164;-50
2022/08/29 01:56:48;;;;;;;9.90;8.87;;;14.00;99.90;;;;;;5050050;28;20442;-49
2022/08/29 01:59:16;;;;;;;13.87;9.50;;;14.00;99.90;;;;;;5045901;28;20296;-50
2022/08/29 02:01:57;;;;;;;13.23;8.93;;;14.00;99.90;;;;;;5031216;28;20541;-49
2022/08/29 02:04:23;;;;;;;9.13;8.07;;;14.00;99.90;;;;;;5042567;28;20519;-49
2022/08/29 02:06:49;;;;;;;11.70;9.20;;;14.00;99.90;;;;;;5050611;28;20918;-49
2022/08/29 02:09:15;;;;;;;13.30;9.80;;;14.00;99.90;;;;;;5016256;28;20175;-49
2022/08/29 02:11:40;;;;;;;9.90;7.57;;;13.90;99.90;;;;;;5046535;28;20424;-47
2022/08/29 02:14:07;;;;;;;14.53;9.13;;;13.90;99.90;;;;;;5048371;28;20743;-47
2022/08/29 02:16:34;;;;;;;11.93;9.70;;;13.90;99.90;;;;;;5046811;28;20184;-49
2022/08/29 02:18:59;;;;;;;13.50;9.70;;;13.90;99.90;;;;;;5049153;28;20792;-51
2022/08/29 02:21:27;;;;;;;9.43;8.40;;;13.90;99.90;;;;;;5035782;28;20460;-48
2022/08/29 02:23:54;;;;;;;10.07;9.00;;;13.80;99.90;;;;;;5051105;28;20266;-50
2022/08/29 02:26:20;;;;;;;11.53;9.13;;;13.80;99.90;;;;;;5043065;28;20485;-51
2022/08/29 02:28:48;;;;;;;10.27;8.93;;;13.80;99.90;;;;;;5039867;28;20480;-49
2022/08/29 02:31:15;;;;;;;9.77;8.77;;;13.80;99.90;;;;;;5046842;28;20450;-49
2022/08/29 02:33:41;;;;;;;10.30;8.70;;;13.80;99.90;;;;;;5058840;28;20460;-51
2022/08/29 02:36:07;;;;;;;11.40;9.40;;;13.80;99.90;;;;;;5048024;28;20492;-50
2022/08/29 02:38:33;;;;;;;9.20;7.93;;;13.80;99.90;;;;;;5039747;28;20542;-52
2022/08/29 02:40:59;;;;;;;10.80;9.70;;;13.70;99.90;;;;;;5042311;28;20463;-48
2022/08/29 02:43:25;;;;;;;11.30;8.80;;;13.80;99.90;;;;;;5038200;28;20779;-50
2022/08/29 02:45:51;;;;;;;13.60;9.63;;;13.70;99.90;;;;;;5050131;28;20181;-48
2022/08/29 02:48:17;;;;;;;9.37;8.13;;;13.70;99.90;;;;;;5048708;28;20190;-48
2022/08/29 02:50:46;;;;;;;10.00;8.70;;;13.70;99.90;;;;;;5048658;28;20498;-51
2022/08/29 02:53:14;;;;;;;12.50;9.43;;;13.70;99.90;;;;;;5043554;28;21321;-47
2022/08/29 02:55:40;;;;;;;11.57;9.90;;;13.70;99.90;;;;;;5048986;28;20443;-48
2022/08/29 02:58:06;;;;;;;10.30;8.70;;;13.70;99.90;;;;;;5041184;28;20938;-50
2022/08/29 03:00:33;;;;;;;10.10;8.93;;;13.70;99.90;;;;;;5047951;28;20246;-51
2022/08/29 03:02:59;;;;;;;10.43;8.93;;;13.60;99.90;;;;;;5040284;28;20508;-49
2022/08/29 03:05:28;;;;;;;10.80;9.27;;;13.60;99.90;;;;;;5035325;28;20463;-51
2022/08/29 03:07:57;;;;;;;10.07;9.07;;;13.60;99.90;;;;;;5038472;28;20495;-48
2022/08/29 03:10:24;;;;;;;13.67;9.23;;;13.50;99.90;;;;;;5044927;28;20437;-51
2022/08/29 03:12:50;;;;;;;10.53;8.47;;;13.50;99.90;;;;;;5042417;28;20437;-51
2022/08/29 03:15:16;;;;;;;14.47;9.07;;;13.50;99.90;;;;;;5040186;28;20964;-48
2022/08/29 03:17:43;;;;;;;10.40;9.30;;;13.40;99.90;;;;;;5046490;28;20811;-47
2022/08/29 03:20:11;;;;;;;10.13;8.70;;;13.40;99.90;;;;;;5043080;28;20457;-47
2022/08/29 03:22:36;;;;;;;9.43;8.53;;;13.40;99.90;;;;;;5036954;28;20448;-47
2022/08/29 03:25:04;;;;;;;11.63;9.27;;;13.40;99.90;;;;;;5046460;28;20443;-51
2022/08/29 03:27:31;;;;;;;10.60;9.07;;;13.40;99.90;;;;;;5048511;28;20644;-50
2022/08/29 03:29:57;;;;;;;10.03;9.03;;;13.40;99.90;;;;;;5048113;28;20425;-46
2022/08/29 03:32:23;;;;;;;13.50;8.90;;;13.30;99.90;;;;;;5048198;28;21170;-47
2022/08/29 03:34:49;;;;;;;11.67;8.90;;;13.30;99.90;;;;;;5048884;28;20468;-48
2022/08/29 03:37:14;;;;;;;9.80;8.80;;;13.30;99.90;;;;;;5046857;28;20189;-48
2022/08/29 03:39:40;;;;;;;12.20;9.13;;;13.30;99.90;;;;;;5049006;28;20198;-51
2022/08/29 03:42:07;;;;;;;10.87;8.73;;;13.20;99.90;;;;;;5047589;28;20429;-48
2022/08/29 03:44:35;;;;;;;9.40;8.50;;;13.20;99.90;;;;;;5048848;28;20178;-47
2022/08/29 03:47:00;;;;;;;10.23;9.03;;;13.20;99.90;;;;;;5047875;28;20433;-53
2022/08/29 03:49:26;;;;;;;14.13;8.87;;;13.20;99.90;;;;;;5047471;28;20853;-49
2022/08/29 03:51:52;;;;;;;10.90;9.07;;;13.20;99.90;;;;;;5048844;28;20236;-49
2022/08/29 03:54:18;;;;;;;11.63;9.47;;;13.20;99.90;;;;;;5047762;28;20773;-48
2022/08/29 03:56:45;;;;;;;10.43;8.73;;;13.20;99.90;;;;;;5043852;28;20437;-52
2022/08/29 03:59:11;;;;;;;12.30;9.50;;;13.20;99.90;;;;;;5042563;28;20551;-50
2022/08/29 04:01:37;;;;;;;11.03;9.83;;;13.10;99.90;;;;;;5048015;28;20487;-52
2022/08/29 04:04:03;;;;;;;12.30;9.30;;;13.10;99.90;;;;;;5046846;28;20436;-48
2022/08/29 04:06:31;;;;;;;11.10;8.87;;;13.10;99.90;;;;;;5043518;28;20521;-48
2022/08/29 04:08:57;;;;;;;10.60;9.30;;;13.10;99.90;;;;;;5046896;28;20491;-48
2022/08/29 04:11:24;;;;;;;10.70;9.60;;;13.00;99.90;;;;;;5039339;28;20468;-50
2022/08/29 04:13:51;;;;;;;11.37;8.50;;;13.00;99.90;;;;;;5036348;28;20440;-51
2022/08/29 04:16:21;;;;;;;11.33;8.43;;;13.00;99.90;;;;;;5036282;28;20436;-51
2022/08/29 04:18:47;;;;;;;11.10;9.37;;;13.00;99.90;;;;;;5036001;28;21005;-52
2022/08/29 04:21:14;;;;;;;10.00;9.00;;;13.00;99.90;;;;;;5038768;28;21389;-51
2022/08/29 04:23:40;;;;;;;10.50;9.50;;;13.10;99.90;;;;;;5039588;28;20474;-51
2022/08/29 04:26:17;;;;;;;11.33;9.77;;;13.10;99.90;;;;;;5038505;28;20437;-53
2022/08/29 04:28:43;;;;;;;11.13;9.60;;;13.10;99.90;;;;;;5039519;28;20433;-50
2022/08/29 04:31:18;;;;;;;10.40;9.40;;;13.10;99.90;;;;;;5038936;28;21042;-51
2022/08/29 04:33:45;;;;;;;14.03;9.90;;;13.10;99.90;;;;;;5039794;28;20644;-51
2022/08/29 04:36:11;;;;;;;11.13;10.03;;;13.10;99.90;;;;;;5020561;28;20440;-49
2022/08/29 04:38:37;;;;;;;13.93;12.07;;;13.20;99.90;;;;;;5038171;28;20513;-49
2022/08/29 04:41:08;;;;;;;12.97;11.53;;;13.10;99.90;;;;;;5036738;28;20464;-51
2022/08/29 04:43:33;;;;;;;11.67;10.57;;;13.20;99.90;;;;;;5041625;28;20190;-52
2022/08/29 04:46:00;;;;;;;12.50;10.70;;;13.20;99.90;;;;;;5044669;28;20443;-50
2022/08/29 04:48:26;;;;;;;12.93;10.73;;;13.10;99.90;;;;;;5048197;28;20594;-51
2022/08/29 04:50:56;;;;;;;12.80;10.40;;;13.10;99.90;;;;;;5021425;28;20440;-49
2022/08/29 04:53:23;;;;;;;12.63;10.67;;;13.10;99.90;;;;;;5041137;28;20783;-49
2022/08/29 04:56:00;;;;;;;12.90;10.83;;;13.10;99.90;;;;;;5053021;28;20416;-48
2022/08/29 04:58:27;;;;;;;12.57;10.70;;;13.10;99.90;;;;;;5051558;28;20432;-49
2022/08/29 05:00:53;;;;;;;11.90;9.87;;;13.10;99.90;;;;;;5046720;28;20460;-48
2022/08/29 05:03:19;;;;;;;15.03;11.40;;;13.20;99.90;;;;;;5040689;28;20899;-50
2022/08/29 05:05:53;;;;;;;13.07;10.93;;;13.20;99.90;;;;;;5051846;28;20420;-49
2022/08/29 05:08:19;;;;;;;12.80;11.50;;;13.30;99.90;;;;;;5044627;28;20415;-46
2022/08/29 05:10:46;;;;;;;14.40;11.37;;;13.30;99.90;;;;;;5045347;28;20463;-52
2022/08/29 05:13:12;;;;;;;12.27;10.20;;;13.30;99.90;;;;;;5034070;28;20788;-53
2022/08/29 05:15:38;;;;;;;15.43;12.07;;;13.40;99.90;;;;;;5032433;28;20467;-48
2022/08/29 05:18:03;;;;;;;13.17;10.63;;;13.50;99.90;;;;;;5014640;28;20285;-51
2022/08/29 05:20:30;;;;;;;13.43;11.47;;;13.50;99.90;;;;;;5043980;28;20460;-52
2022/08/29 05:22:56;;;;;;;12.13;10.70;;;13.50;99.90;;;;;;5050427;28;20175;-50
2022/08/29 05:25:22;;;;;;;16.47;12.30;;;13.50;99.90;;;;;;5052039;28;20455;-51
2022/08/29 05:27:48;;;;;;;15.63;12.40;;;13.50;99.90;;;;;;5038780;28;20425;-47
2022/08/29 05:30:15;;;;;;;14.20;11.93;;;13.50;99.90;;;;;;5035531;28;20760;-51
2022/08/29 05:32:41;;;;;;;13.53;12.13;;;13.50;99.90;;;;;;5049856;28;20198;-46
2022/08/29 05:35:08;;;;;;;21.50;12.40;;;13.60;99.90;;;;;;5033745;28;20427;-48
2022/08/29 05:37:33;;;;;;;11.30;9.97;;;13.60;99.90;;;;;;5032201;28;20156;-53
2022/08/29 05:39:59;;;;;;;12.20;10.90;;;13.70;99.90;;;;;;5032118;28;20978;-48
2022/08/29 05:42:26;;;;;;;10.83;9.73;;;13.70;99.90;;;;;;5032301;28;20768;-50
2022/08/29 05:44:52;;;;;;;11.63;10.27;;;13.80;99.90;;;;;;5032266;28;20228;-52
2022/08/29 05:47:19;;;;;;;13.63;10.07;;;13.80;99.90;;;;;;5037129;28;20405;-50
2022/08/29 05:49:46;;;;;;;13.00;10.20;;;13.90;99.90;;;;;;5041613;28;21350;-51
2022/08/29 05:52:13;;;;;;;12.67;10.60;;;13.90;99.90;;;;;;5041864;28;20440;-49
2022/08/29 05:54:41;;;;;;;12.40;10.20;;;13.90;99.90;;;;;;5043736;28;20429;-52
2022/08/29 05:57:09;;;;;;;12.43;9.43;;;14.00;99.90;;;;;;5040158;28;20412;-53
2022/08/29 05:59:36;;;;;;;12.93;9.90;;;14.00;99.90;;;;;;5042644;28;20512;-50
2022/08/29 06:02:05;;;;;;;11.40;9.10;;;14.10;99.90;;;;;;5039673;28;20445;-50
2022/08/29 06:04:31;;;;;;;12.37;9.30;;;14.00;99.90;;;;;;5023593;28;20505;-50
2022/08/29 06:06:56;;;;;;;12.43;8.50;;;14.10;99.90;;;;;;5038909;28;20556;-51
2022/08/29 06:09:24;;;;;;;12.93;8.47;;;14.20;99.90;;;;;;5041403;28;20163;-50
2022/08/29 06:11:56;;;;;;;10.03;7.10;;;14.30;99.90;;;;;;5041432;28;20253;-50
2022/08/29 06:14:22;;;;;;;11.27;7.43;;;14.40;99.90;;;;;;5041029;28;20401;-51
2022/08/29 06:16:48;;;;;;;11.50;8.60;;;14.40;99.90;;;;;;5037050;28;20487;-47
2022/08/29 06:19:14;;;;;;;7.90;7.10;;;14.40;99.90;;;;;;5048863;28;20429;-52
2022/08/29 06:21:40;;;;;;;14.70;7.23;;;14.40;99.90;;;;;;5009429;28;20317;-48
2022/08/29 06:24:06;;;;;;;11.10;6.87;;;14.50;99.90;;;;;;5044676;28;20413;-52
2022/08/29 06:26:32;;;;;;;12.40;8.70;;;14.60;99.90;;;;;;5046326;28;20186;-54
2022/08/29 06:28:58;;;;;;;8.33;7.53;;;14.70;99.90;;;;;;5042369;28;20525;-50
2022/08/29 06:31:27;;;;;;;9.03;7.40;;;14.80;99.90;;;;;;5027172;28;20803;-50
2022/08/29 06:33:56;;;;;;;11.47;8.50;;;14.80;99.90;;;;;;5034152;28;20491;-50
2022/08/29 06:36:24;;;;;;;7.83;6.10;;;14.90;99.90;;;;;;5031056;28;20461;-47
2022/08/29 06:38:51;;;;;;;8.20;6.17;;;15.00;99.90;;;;;;5043435;28;20433;-49
2022/08/29 06:41:17;;;;;;;6.73;5.83;;;15.10;99.90;;;;;;5040530;28;20551;-51
2022/08/29 06:43:43;;;;;;;8.67;6.27;;;15.20;72.30;;;;;;5043253;28;20437;-48
2022/08/29 06:46:29;;;;;;;6.00;4.80;;;15.40;57.60;;;;;;5041032;28;20879;-50
2022/08/29 06:48:57;;;;;;;7.23;5.50;;;15.50;32.00;;;;;;5034011;28;20997;-50
2022/08/29 06:51:23;;;;;;;6.20;4.90;;;15.60;21.90;;;;;;5030967;28;20415;-52
2022/08/29 06:53:50;;;;;;;6.17;4.90;;;15.70;1.00;;;;;;5040723;28;20536;-51
2022/08/29 06:56:16;;;;;;;7.27;4.83;;;16.00;1.00;;;;;;5047112;28;20465;-49
2022/08/29 06:58:42;;;;;;;5.87;4.30;;;16.10;1.00;;;;;;5051005;28;20399;-48
2022/08/29 07:01:12;;;;;;;5.63;4.77;;;16.20;1.00;;;;;;5050470;28;20476;-47
2022/08/29 07:03:39;;;;;;;9.90;4.93;;;16.40;1.00;;;;;;5052934;28;20446;-51
2022/08/29 07:06:06;;;;;;;8.17;5.00;;;16.50;1.00;;;;;;5059289;28;20479;-48
2022/08/29 07:08:32;;;;;;;6.83;4.67;;;16.60;1.00;;;;;;5049591;28;20817;-48
2022/08/29 07:10:58;;;;;;;6.30;5.00;;;16.70;1.00;;;;;;5035218;28;20528;-52
2022/08/29 07:13:24;;;;;;;7.10;5.43;;;16.80;1.00;;;;;;5044526;28;20435;-48
2022/08/29 07:15:49;;;;;;;8.17;5.17;;;16.90;1.00;;;;;;5049659;28;20443;-47
2022/08/29 07:18:15;;;;;;;7.97;6.00;;;16.90;1.00;;;;;;5036731;28;20200;-53
2022/08/29 07:20:40;;;;;;;8.30;5.30;;;16.90;1.00;;;;;;5041198;28;20267;-48
2022/08/29 07:23:07;;;;;;;9.37;6.10;;;17.00;1.00;;;;;;5020483;28;20275;-48
2022/08/29 07:25:32;;;;;;;10.50;5.20;;;17.10;1.00;;;;;;5040005;28;20719;-48
2022/08/29 07:27:58;;;;;;;7.50;4.87;;;17.20;1.00;;;;;;5044042;28;20507;-46
2022/08/29 07:30:24;;;;;;;8.17;5.17;;;17.30;1.00;;;;;;5047632;28;20193;-48
2022/08/29 07:32:50;;;;;;;6.40;5.10;;;17.30;1.00;;;;;;5049122;28;20536;-49
2022/08/29 07:35:17;;;;;;;7.43;4.97;;;17.40;99.90;;;;;;5048766;28;20487;-51
2022/08/29 07:37:43;;;;;;;5.60;4.70;;;17.50;1.00;;;;;;5029353;28;20282;-49
2022/08/29 07:40:11;;;;;;;7.00;4.57;;;17.60;99.90;;;;;;5035219;28;20578;-47
2022/08/29 07:42:38;;;;;;;6.83;4.80;;;17.70;99.90;;;;;;5041166;28;20183;-46
2022/08/29 07:45:08;;;;;;;7.73;5.30;;;17.80;99.90;;;;;;5035799;28;20443;-45
2022/08/29 07:47:34;;;;;;;7.50;5.17;;;17.90;1.00;;;;;;5037850;28;20412;-47
2022/08/29 07:50:05;;;;;;;6.57;5.63;;;17.90;30.00;;;;;;5049678;28;20428;-47
2022/08/29 07:52:31;;;;;;;5.60;5.00;;;18.00;1.00;;;;;;5040184;28;20421;-47
2022/08/29 07:54:57;;;;;;;7.17;5.30;;;18.10;47.90;;;;;;5039194;28;20783;-50
2022/08/29 07:57:23;;;;;;;6.90;5.40;;;18.20;27.80;;;;;;5043256;28;20194;-49
2022/08/29 07:59:49;;;;;;;10.90;5.70;;;18.20;99.90;;;;;;5042011;28;20297;-48
2022/08/29 08:02:15;;;;;;;6.97;4.90;;;18.30;99.90;;;;;;5036957;28;20186;-47
2022/08/29 08:04:41;;;;;;;7.13;6.20;;;18.50;40.80;;;;;;5041555;28;20491;-48
2022/08/29 08:07:07;;;;;;;5.97;5.13;;;18.50;1.00;;;;;;5046891;28;20467;-50
2022/08/29 08:09:32;;;;;;;7.00;5.30;;;18.70;1.00;;;;;;5049014;28;20429;-48
2022/08/29 08:11:58;;;;;;;7.47;5.23;;;18.70;1.00;;;;;;5049331;28;20186;-54
2022/08/29 08:14:24;;;;;;;6.70;5.93;;;18.90;1.00;;;;;;5043302;28;20190;-56
2022/08/29 08:16:50;;;;;;;5.60;4.93;;;19.00;99.90;;;;;;5049537;28;20296;-53
2022/08/29 08:19:17;;;;;;;6.70;5.63;;;19.00;90.00;;;;;;5043307;28;20542;-54
2022/08/29 08:21:42;;;;;;;7.80;4.70;;;18.90;72.10;;;;;;5032496;28;20542;-56
2022/08/29 08:24:08;;;;;;;5.93;5.30;;;19.00;99.90;;;;;;5029131;28;20436;-54
2022/08/29 08:26:34;;;;;;;7.10;5.63;;;19.20;1.00;;;;;;5044550;28;20809;-53
2022/08/29 08:29:00;;;;;;;8.40;5.33;;;19.40;1.00;;;;;;5017516;28;20191;-57
2022/08/29 08:31:26;;;;;;;7.47;4.60;;;19.60;1.00;;;;;;5044556;28;20782;-55
2022/08/29 08:33:52;;;;;;;5.90;5.23;;;19.90;99.90;;;;;;5045700;28;20462;-57
2022/08/29 08:36:27;;;;;;;7.93;5.10;;;20.10;1.00;;;;;;5034259;28;20464;-55
2022/08/29 08:38:54;;;;;;;7.17;6.20;;;20.40;99.90;;;;;;5047241;28;20446;-57
2022/08/29 08:41:25;;;;;;;6.20;5.00;;;20.70;1.00;;;;;;5043632;28;20970;-56
2022/08/29 08:44:06;;;;;;;9.93;5.43;;;20.90;1.00;;;;;;5041219;28;20438;-53
2022/08/29 08:46:43;;;;;;;6.63;5.20;;;21.10;1.00;;;;;;5038788;28;20426;-55
2022/08/29 08:49:17;;;;;;;6.20;5.60;;;21.50;99.90;;;;;;5035845;28;20434;-56
2022/08/29 08:51:57;;;;;;;6.87;6.03;;;21.90;99.90;;;;;;5031039;28;20434;-53
2022/08/29 08:54:34;;;;;;;6.60;5.40;;;22.40;99.90;;;;;;5042349;28;20837;-55
2022/08/29 08:57:11;;;;;;;11.67;5.70;;;23.00;1.00;;;;;;5044625;28;20526;-57
2022/08/29 08:59:44;;;;;;;5.53;4.97;;;23.70;1.00;;;;;;5039895;28;20466;-56
2022/08/29 09:02:31;;;;;;;5.63;5.03;;;24.30;1.00;;;;;;5037263;28;20981;-52
2022/08/29 09:05:26;;;;;;;7.47;6.07;;;24.90;1.00;;;;;;5046563;28;20436;-56
2022/08/29 09:08:03;;;;;;;6.57;5.93;;;25.30;99.90;;;;;;5052504;28;20510;-58
2022/08/29 09:10:48;;;;;;;6.83;5.97;;;25.80;99.90;;;;;;5045196;28;20534;-55
2022/08/29 09:13:32;;;;;;;7.23;5.60;;;26.20;99.90;;;;;;5041577;28;20435;-58
2022/08/29 09:16:00;;;;;;;5.83;5.33;;;26.70;99.90;;;;;;5046097;28;20436;-56
2022/08/29 09:18:32;;;;;;;5.80;4.73;;;27.10;99.90;;;;;;5034030;28;20872;-58
2022/08/29 09:20:59;;;;;;;6.73;6.13;;;27.50;99.90;;;;;;5037413;28;20472;-58
2022/08/29 09:23:39;;;;;;;7.93;7.30;;;27.50;99.90;;;;;;5043759;28;20452;-57
2022/08/29 09:26:05;;;;;;;6.60;6.10;;;28.10;99.90;;;;;;5037880;28;20420;-56
2022/08/29 09:28:31;;;;;;;7.13;5.80;;;28.20;99.90;;;;;;5038925;28;20523;-58
2022/08/29 09:31:21;;;;;;;8.00;6.67;;;28.60;99.90;;;;;;5041507;28;20610;-58
2022/08/29 09:34:01;;;;;;;6.70;6.10;;;29.10;99.90;;;;;;5038219;28;20183;-56
2022/08/29 09:36:33;;;;;;;6.40;5.80;;;29.50;99.90;;;;;;5041525;28;20441;-58
2022/08/29 09:39:19;;;;;;;11.30;6.50;;;29.20;99.90;;;;;;5041215;28;20446;-58
2022/08/29 09:41:49;;;;;;;6.57;5.97;;;29.40;99.90;;;;;;5048253;28;20463;-58
2022/08/29 09:44:30;;;;;;;7.07;6.37;;;29.20;99.90;;;;;;5044850;28;20849;-57
2022/08/29 09:47:06;;;;;;;6.40;5.80;;;28.70;99.90;;;;;;5042229;28;20466;-57
2022/08/29 09:49:33;;;;;;;7.13;6.43;;;28.40;99.90;;;;;;5043851;28;20436;-58
2022/08/29 09:52:14;;;;;;;7.63;6.93;;;28.40;99.90;;;;;;5044636;28;20425;-57
2022/08/29 09:54:41;;;;;;;6.27;5.67;;;28.80;99.90;;;;;;5039805;28;20425;-57
2022/08/29 09:57:26;;;;;;;6.50;5.80;;;29.20;99.90;;;;;;5040177;28;20599;-57
2022/08/29 10:00:12;;;;;;;6.90;6.20;;;29.60;99.90;;;;;;5030805;28;20532;-57
2022/08/29 10:02:59;;;;;;;5.90;5.40;;;30.00;99.90;;;;;;5030009;28;21035;-58
2022/08/29 10:05:43;;;;;;;6.70;6.10;;;30.10;99.90;;;;;;5041872;28;20493;-58
2022/08/29 10:08:34;;;;;;;7.87;5.83;;;30.40;99.90;;;;;;5017807;28;20511;-58
2022/08/29 10:11:05;;;;;;;7.50;5.87;;;30.80;99.90;;;;;;5041997;28;20510;-57
2022/08/29 10:13:44;;;;;;;6.60;6.00;;;31.20;99.90;;;;;;5051149;28;20431;-57
2022/08/29 10:16:23;;;;;;;6.60;5.93;;;31.30;99.90;;;;;;5049850;28;20415;-57
2022/08/29 10:19:01;;;;;;;8.90;6.53;;;31.40;99.90;;;;;;5035347;28;20970;-59
2022/08/29 10:21:29;;;;;;;7.10;6.40;;;31.30;99.90;;;;;;5040996;28;20469;-58
2022/08/29 10:24:42;;;;;;;7.70;5.73;;;30.80;99.90;;;;;;5038602;28;20437;-58
2022/08/29 10:27:21;;;;;;;6.40;5.80;;;30.80;99.90;;;;;;5016517;28;20556;-58
2022/08/29 10:29:53;;;;;;;6.10;5.60;;;30.80;99.90;;;;;;5039316;28;20437;-57
2022/08/29 10:32:28;;;;;;;6.70;6.10;;;31.00;99.90;;;;;;5045173;28;20907;-54
2022/08/29 10:35:04;;;;;;;7.83;5.83;;;31.00;99.90;;;;;;5034454;28;20433;-58
2022/08/29 10:37:54;;;;;;;6.23;5.73;;;31.20;99.90;;;;;;5049788;28;20744;-55
2022/08/29 10:40:41;;;;;;;6.40;6.00;;;31.30;99.90;;;;;;5038652;28;20496;-58
2022/08/29 10:43:46;;;;;;;6.60;6.10;;;31.40;99.90;;;;;;5041466;28;20515;-57
2022/08/29 10:46:37;;;;;;;5.90;5.40;;;32.10;99.90;;;;;;5008316;28;20555;-58
2022/08/29 10:49:37;;;;;;;6.30;5.70;;;32.20;99.90;;;;;;5042692;28;20457;-58
2022/08/29 10:52:11;;;;;;;7.30;6.80;;;32.30;99.90;;;;;;5049963;28;20774;-56
2022/08/29 10:55:04;;;;;;;7.67;7.00;;;32.70;99.90;;;;;;5042974;28;20440;-58
2022/08/29 10:57:46;;;;;;;6.43;5.93;;;32.80;99.90;;;;;;5039465;28;20424;-59
2022/08/29 11:00:24;;;;;;;7.67;6.13;;;33.10;99.90;;;;;;5042405;28;20468;-59
2022/08/29 11:03:06;;;;;;;7.30;6.37;;;33.10;99.90;;;;;;5043673;28;20467;-60
2022/08/29 11:05:48;;;;;;;6.50;6.03;;;32.20;99.90;;;;;;5039008;28;20974;-59
2022/08/29 11:08:18;;;;;;;6.50;6.10;;;32.30;99.90;;;;;;5039601;28;20910;-59
2022/08/29 11:10:48;;;;;;;7.00;6.40;;;32.50;99.90;;;;;;5039996;28;20439;-58
2022/08/29 11:13:28;;;;;;;7.03;6.43;;;32.90;99.90;;;;;;5044143;28;20436;-59
2022/08/29 11:16:09;;;;;;;6.93;6.40;;;32.90;99.90;;;;;;5042519;28;20789;-59
2022/08/29 11:18:40;;;;;;;6.70;6.10;;;33.40;99.90;;;;;;5038726;28;20859;-58
2022/08/29 11:21:16;;;;;;;7.40;6.80;;;33.70;99.90;;;;;;5038025;28;20504;-58
2022/08/29 11:23:45;;;;;;;7.30;6.80;;;34.30;99.90;;;;;;5043847;28;20425;-58
2022/08/29 11:26:22;;;;;;;7.37;6.77;;;34.10;99.90;;;;;;5038776;28;20955;-59
2022/08/29 11:29:25;;;;;;;7.43;6.93;;;33.80;99.90;;;;;;5041816;28;20428;-58
2022/08/29 11:31:54;;;;;;;6.77;6.27;;;33.40;99.90;;;;;;5031116;28;20504;-57
2022/08/29 11:35:02;;;;;;;6.73;6.23;;;33.50;99.90;;;;;;5037937;28;20429;-59
2022/08/29 11:38:05;;;;;;;7.00;6.50;;;33.10;99.90;;;;;;5040267;28;20481;-59
2022/08/29 11:40:36;;;;;;;6.10;5.70;;;33.60;99.90;;;;;;5043757;28;20472;-59
2022/08/29 11:43:06;;;;;;;6.80;6.30;;;33.40;99.90;;;;;;5037706;28;20553;-59
2022/08/29 11:45:37;;;;;;;6.47;5.90;;;33.80;99.90;;;;;;5047769;28;20890;-59
2022/08/29 11:48:53;;;;;;;6.87;6.37;;;34.30;99.90;;;;;;5047273;28;20466;-58
2022/08/29 11:51:32;;;;;;;6.80;6.20;;;34.40;99.90;;;;;;5017512;28;20449;-59
2022/08/29 11:54:23;;;;;;;6.00;5.50;;;34.80;99.90;;;;;;5044051;28;20416;-58
2022/08/29 11:56:59;;;;;;;6.07;5.67;;;34.60;99.90;;;;;;5038400;28;20871;-57
2022/08/29 11:59:47;;;;;;;6.40;5.90;;;34.50;99.90;;;;;;5047124;28;20435;-59
2022/08/29 12:02:29;;;;;;;6.63;6.03;;;34.20;99.90;;;;;;5042769;28;20807;-58
2022/08/29 12:05:00;;;;;;;6.70;6.17;;;34.00;99.90;;;;;;5041412;28;20414;-59
2022/08/29 12:07:48;;;;;;;6.43;5.93;;;34.10;99.90;;;;;;5047507;28;21176;-59
2022/08/29 12:10:22;;;;;;;6.47;5.90;;;34.50;99.90;;;;;;5037819;28;20919;-54
2022/08/29 12:12:50;;;;;;;5.80;5.40;;;35.00;99.90;;;;;;5044088;28;20428;-58
2022/08/29 12:15:31;;;;;;;5.70;5.20;;;34.80;99.90;;;;;;5041077;28;21268;-58
2022/08/29 12:18:20;;;;;;;4.93;4.60;;;34.60;99.90;;;;;;5040647;28;20506;-58
2022/08/29 12:20:49;;;;;;;5.47;5.07;;;34.90;99.90;;;;;;5044888;28;20480;-59
2022/08/29 12:23:34;;;;;;;5.50;5.10;;;34.60;99.90;;;;;;5043013;28;20615;-57
2022/08/29 12:26:24;;;;;;;9.20;5.60;;;34.70;99.90;;;;;;5039480;28;20424;-58
2022/08/29 12:28:59;;;;;;;7.20;5.87;;;34.50;99.90;;;;;;5037857;28;20472;-59
2022/08/29 12:31:43;;;;;;;5.60;5.20;;;34.20;99.90;;;;;;5038401;28;20425;-58
2022/08/29 12:34:26;;;;;;;6.63;6.03;;;33.40;99.90;;;;;;5038711;28;20425;-59
2022/08/29 12:37:29;;;;;;;6.23;5.83;;;33.60;99.90;;;;;;5041952;28;20416;-59
2022/08/29 12:40:07;;;;;;;6.23;5.73;;;33.20;99.90;;;;;;5037841;28;20875;-58
2022/08/29 12:43:09;;;;;;;6.20;5.80;;;33.10;99.90;;;;;;5038190;28;20411;-58
2022/08/29 12:45:36;;;;;;;6.13;5.73;;;32.90;99.90;;;;;;5038539;28;20438;-58
2022/08/29 12:48:10;;;;;;;6.40;5.80;;;32.60;99.90;;;;;;5041077;28;20477;-59
2022/08/29 12:50:42;;;;;;;5.53;5.13;;;32.80;99.90;;;;;;5037145;28;20487;-57
2022/08/29 12:53:28;;;;;;;5.60;5.20;;;32.90;99.90;;;;;;5040590;28;20922;-56
2022/08/29 12:55:57;;;;;;;5.63;5.23;;;33.40;99.90;;;;;;5048357;28;20777;-57
2022/08/29 12:58:53;;;;;;;5.83;5.43;;;33.30;99.90;;;;;;5035450;28;20422;-60
2022/08/29 13:01:26;;;;;;;5.80;5.40;;;32.90;99.90;;;;;;5039507;28;21205;-59
2022/08/29 13:04:16;;;;;;;6.40;5.90;;;32.70;99.90;;;;;;5042834;28;20422;-59
2022/08/29 13:07:05;;;;;;;5.97;5.57;;;32.90;99.90;;;;;;5039576;28;20519;-57